sensor_id;sensor_type;location;lat;lon;timestamp;pressure;altitude;pressure_sealevel;temperature;humidity
21960;BME280;11144;43.030;25.108;2023-05-03T00:01:07;99568.03;;;15.33;65.75
21960;BME280;11144;43.030;25.108;2023-05-03T00:02:42;99563.59;;;15.34;64.58
21960;BME280;11144;43.030;25.108;2023-05-03T00:04:15;99562.63;;;15.35;64.59
21960;BME280;11144;43.030;25.108;2023-05-03T00:05:49;99563.59;;;15.34;64.76
21960;BME280;11144;43.030;25.108;2023-05-03T00:07:22;99556.53;;;15.33;65.11
21960;BME280;11144;43.030;25.108;2023-05-03T00:08:56;99563.75;;;15.31;65.12
21960;BME280;11144;43.030;25.108;2023-05-03T00:10:29;99567.19;;;15.33;64.98
21960;BME280;11144;43.030;25.108;2023-05-03T00:12:03;99563.59;;;15.34;64.03
21960;BME280;11144;43.030;25.108;2023-05-03T00:13:36;99561.88;;;15.33;64.11
21960;BME280;11144;43.030;25.108;2023-05-03T00:15:10;99560.13;;;15.32;63.50
21960;BME280;11144;43.030;25.108;2023-05-03T00:16:43;99563.41;;;15.38;61.94
21960;BME280;11144;43.030;25.108;2023-05-03T00:18:18;99555.06;;;15.44;61.43
21960;BME280;11144;43.030;25.108;2023-05-03T00:19:51;99562.91;;;15.47;61.83
21960;BME280;11144;43.030;25.108;2023-05-03T00:21:26;99560.94;;;15.51;62.19
21960;BME280;11144;43.030;25.108;2023-05-03T00:22:59;99555.59;;;15.51;62.44
21960;BME280;11144;43.030;25.108;2023-05-03T00:24:33;99543.22;;;15.50;61.61
21960;BME280;11144;43.030;25.108;2023-05-03T00:26:06;99544.00;;;15.52;61.18
21960;BME280;11144;43.030;25.108;2023-05-03T00:27:41;99544.47;;;15.60;59.72
21960;BME280;11144;43.030;25.108;2023-05-03T00:29:15;99553.94;;;15.65;59.60
21960;BME280;11144;43.030;25.108;2023-05-03T00:30:49;99542.75;;;15.59;59.57
21960;BME280;11144;43.030;25.108;2023-05-03T00:32:23;99557.22;;;15.70;59.16
21960;BME280;11144;43.030;25.108;2023-05-03T00:33:58;99550.88;;;15.73;58.88
21960;BME280;11144;43.030;25.108;2023-05-03T00:35:31;99543.81;;;15.72;59.31
21960;BME280;11144;43.030;25.108;2023-05-03T00:37:04;99549.16;;;15.72;58.91
21960;BME280;11144;43.030;25.108;2023-05-03T00:38:38;99545.72;;;15.70;59.37
21960;BME280;11144;43.030;25.108;2023-05-03T00:40:12;99552.59;;;15.74;59.39
21960;BME280;11144;43.030;25.108;2023-05-03T00:41:49;99540.19;;;15.73;59.22
21960;BME280;11144;43.030;25.108;2023-05-03T00:43:22;99549.00;;;15.75;58.74
21960;BME280;11144;43.030;25.108;2023-05-03T00:44:55;99545.53;;;15.73;58.68
21960;BME280;11144;43.030;25.108;2023-05-03T00:46:29;99555.28;;;15.74;59.11
21960;BME280;11144;43.030;25.108;2023-05-03T00:48:02;99540.19;;;15.73;59.16
21960;BME280;11144;43.030;25.108;2023-05-03T00:49:37;99545.44;;;15.74;57.96
21960;BME280;11144;43.030;25.108;2023-05-03T00:51:12;99541.94;;;15.74;58.03
21960;BME280;11144;43.030;25.108;2023-05-03T00:52:46;99541.00;;;15.75;58.21
21960;BME280;11144;43.030;25.108;2023-05-03T00:54:19;99534.72;;;15.76;57.18
21960;BME280;11144;43.030;25.108;2023-05-03T00:55:54;99547.81;;;15.80;56.81
21960;BME280;11144;43.030;25.108;2023-05-03T00:57:28;99552.03;;;15.84;56.85
21960;BME280;11144;43.030;25.108;2023-05-03T00:59:02;99545.91;;;15.82;57.20
21960;BME280;11144;43.030;25.108;2023-05-03T01:00:36;99548.69;;;15.81;57.19
21960;BME280;11144;43.030;25.108;2023-05-03T01:02:10;99541.44;;;15.83;56.82
21960;BME280;11144;43.030;25.108;2023-05-03T01:03:43;99539.72;;;15.82;56.25
21960;BME280;11144;43.030;25.108;2023-05-03T01:05:20;99535.22;;;15.82;55.81
21960;BME280;11144;43.030;25.108;2023-05-03T01:07:02;99537.22;;;15.79;55.54
21960;BME280;11144;43.030;25.108;2023-05-03T01:08:44;99539.97;;;15.77;55.73
21960;BME280;11144;43.030;25.108;2023-05-03T01:10:23;99534.72;;;15.76;55.82
21960;BME280;11144;43.030;25.108;2023-05-03T01:12:08;99532.28;;;15.71;56.14
21960;BME280;11144;43.030;25.108;2023-05-03T01:13:51;99528.13;;;15.66;56.40
21960;BME280;11144;43.030;25.108;2023-05-03T01:15:38;99536.31;;;15.63;55.87
21960;BME280;11144;43.030;25.108;2023-05-03T01:17:17;99538.97;;;15.63;57.39
21960;BME280;11144;43.030;25.108;2023-05-03T01:18:57;99533.66;;;15.63;57.07
21960;BME280;11144;43.030;25.108;2023-05-03T01:20:36;99523.16;;;15.60;56.64
21960;BME280;11144;43.030;25.108;2023-05-03T01:22:26;99532.69;;;15.64;55.91
21960;BME280;11144;43.030;25.108;2023-05-03T01:24:07;99531.91;;;15.62;56.21
21960;BME280;11144;43.030;25.108;2023-05-03T01:25:45;99538.97;;;15.63;56.15
21960;BME280;11144;43.030;25.108;2023-05-03T01:27:17;99524.69;;;15.64;56.45
21960;BME280;11144;43.030;25.108;2023-05-03T01:28:51;99528.31;;;15.63;56.42
21960;BME280;11144;43.030;25.108;2023-05-03T01:30:26;99536.31;;;15.63;56.66
21960;BME280;11144;43.030;25.108;2023-05-03T01:32:44;99526.41;;;15.65;55.54
21960;BME280;11144;43.030;25.108;2023-05-03T01:34:31;99528.13;;;15.66;55.38
21960;BME280;11144;43.030;25.108;2023-05-03T01:36:12;99520.94;;;15.68;55.71
21960;BME280;11144;43.030;25.108;2023-05-03T01:37:46;99526.25;;;15.68;56.03
21960;BME280;11144;43.030;25.108;2023-05-03T01:39:22;99528.13;;;15.66;55.49
21960;BME280;11144;43.030;25.108;2023-05-03T01:40:59;99514.81;;;15.66;55.62
21960;BME280;11144;43.030;25.108;2023-05-03T01:42:35;99527.22;;;15.67;55.94
21960;BME280;11144;43.030;25.108;2023-05-03T01:44:09;99509.66;;;15.63;56.27
21960;BME280;11144;43.030;25.108;2023-05-03T01:45:44;99520.84;;;15.69;55.93
21960;BME280;11144;43.030;25.108;2023-05-03T01:47:18;99514.63;;;15.69;55.76
21960;BME280;11144;43.030;25.108;2023-05-03T01:48:50;99518.19;;;15.69;56.16
21960;BME280;11144;43.030;25.108;2023-05-03T01:50:23;99519.06;;;15.70;55.53
21960;BME280;11144;43.030;25.108;2023-05-03T01:51:56;99518.19;;;15.69;55.61
21960;BME280;11144;43.030;25.108;2023-05-03T01:53:29;99512.78;;;15.71;55.34
21960;BME280;11144;43.030;25.108;2023-05-03T01:55:03;99508.19;;;15.73;55.05
21960;BME280;11144;43.030;25.108;2023-05-03T01:56:37;99516.13;;;15.74;54.28
21960;BME280;11144;43.030;25.108;2023-05-03T01:58:10;99503.59;;;15.76;54.09
21960;BME280;11144;43.030;25.108;2023-05-03T01:59:43;99501.34;;;15.84;54.09
21960;BME280;11144;43.030;25.108;2023-05-03T02:01:17;99504.69;;;15.88;53.81
21960;BME280;11144;43.030;25.108;2023-05-03T02:02:50;99503.69;;;15.90;53.54
21960;BME280;11144;43.030;25.108;2023-05-03T02:04:22;99500.00;;;15.93;53.37
21960;BME280;11144;43.030;25.108;2023-05-03T02:05:56;99492.59;;;15.98;53.11
21960;BME280;11144;43.030;25.108;2023-05-03T02:07:29;99497.78;;;16.01;52.87
21960;BME280;11144;43.030;25.108;2023-05-03T02:09:03;99492.09;;;16.07;52.60
21960;BME280;11144;43.030;25.108;2023-05-03T02:10:36;99497.09;;;16.13;52.52
21960;BME280;11144;43.030;25.108;2023-05-03T02:12:10;99488.25;;;16.12;51.78
21960;BME280;11144;43.030;25.108;2023-05-03T02:13:44;99493.72;;;16.25;51.61
21960;BME280;11144;43.030;25.108;2023-05-03T02:15:19;99489.78;;;16.32;51.53
21960;BME280;11144;43.030;25.108;2023-05-03T02:16:53;99497.59;;;16.35;51.41
21960;BME280;11144;43.030;25.108;2023-05-03T02:18:26;99493.81;;;16.39;51.71
21960;BME280;11144;43.030;25.108;2023-05-03T02:20:02;99492.97;;;16.38;51.20
21960;BME280;11144;43.030;25.108;2023-05-03T02:21:37;99482.28;;;16.38;51.33
21960;BME280;11144;43.030;25.108;2023-05-03T02:23:09;99481.59;;;16.35;51.26
21960;BME280;11144;43.030;25.108;2023-05-03T02:24:43;99474.38;;;16.37;51.05
21960;BME280;11144;43.030;25.108;2023-05-03T02:26:16;99477.78;;;16.39;50.81
21960;BME280;11144;43.030;25.108;2023-05-03T02:27:51;99474.22;;;16.40;50.44
21960;BME280;11144;43.030;25.108;2023-05-03T02:29:24;99484.72;;;16.43;50.68
21960;BME280;11144;43.030;25.108;2023-05-03T02:30:57;99478.47;;;16.44;50.63
21960;BME280;11144;43.030;25.108;2023-05-03T02:32:31;99475.78;;;16.44;50.90
21960;BME280;11144;43.030;25.108;2023-05-03T02:34:04;99473.19;;;16.42;50.95
21960;BME280;11144;43.030;25.108;2023-05-03T02:35:37;99474.38;;;16.37;51.16
21960;BME280;11144;43.030;25.108;2023-05-03T02:37:10;99463.88;;;16.34;50.73
21960;BME280;11144;43.030;25.108;2023-05-03T02:38:42;99460.41;;;16.32;50.80
21960;BME280;11144;43.030;25.108;2023-05-03T02:40:16;99460.59;;;16.29;50.20
21960;BME280;11144;43.030;25.108;2023-05-03T02:41:51;99460.41;;;16.32;50.21
21960;BME280;11144;43.030;25.108;2023-05-03T02:43:26;99459.47;;;16.33;50.01
21960;BME280;11144;43.030;25.108;2023-05-03T02:45:00;99456.63;;;16.36;49.80
21960;BME280;11144;43.030;25.108;2023-05-03T02:46:33;99455.44;;;16.41;50.06
21960;BME280;11144;43.030;25.108;2023-05-03T02:48:07;99452.69;;;16.43;49.89
21960;BME280;11144;43.030;25.108;2023-05-03T02:49:40;99454.44;;;16.44;49.95
21960;BME280;11144;43.030;25.108;2023-05-03T02:51:14;99450.97;;;16.42;49.48
21960;BME280;11144;43.030;25.108;2023-05-03T02:52:47;99457.00;;;16.45;49.61
21960;BME280;11144;43.030;25.108;2023-05-03T02:54:19;99456.13;;;16.45;49.53
21960;BME280;11144;43.030;25.108;2023-05-03T02:55:53;99463.19;;;16.46;49.70
21960;BME280;11144;43.030;25.108;2023-05-03T02:57:26;99449.09;;;16.44;49.73
21960;BME280;11144;43.030;25.108;2023-05-03T02:59:02;99461.66;;;16.42;49.19
21960;BME280;11144;43.030;25.108;2023-05-03T03:00:36;99456.31;;;16.42;49.34
21960;BME280;11144;43.030;25.108;2023-05-03T03:02:09;99459.78;;;16.44;49.59
21960;BME280;11144;43.030;25.108;2023-05-03T03:03:42;99457.84;;;16.46;49.27
21960;BME280;11144;43.030;25.108;2023-05-03T03:05:15;99462.84;;;16.52;49.36
21960;BME280;11144;43.030;25.108;2023-05-03T03:06:52;99464.41;;;16.56;49.46
21960;BME280;11144;43.030;25.108;2023-05-03T03:08:28;99452.84;;;16.55;49.47
21960;BME280;11144;43.030;25.108;2023-05-03T03:10:05;99455.59;;;16.54;49.33
21960;BME280;11144;43.030;25.108;2023-05-03T03:11:39;99450.25;;;16.54;49.43
21960;BME280;11144;43.030;25.108;2023-05-03T03:13:13;99439.00;;;16.49;49.56
21960;BME280;11144;43.030;25.108;2023-05-03T03:14:48;99446.84;;;16.52;49.44
21960;BME280;11144;43.030;25.108;2023-05-03T03:16:21;99445.88;;;16.53;49.40
21960;BME280;11144;43.030;25.108;2023-05-03T03:17:55;99448.72;;;16.50;49.41
21960;BME280;11144;43.030;25.108;2023-05-03T03:19:30;99449.84;;;16.46;49.01
21960;BME280;11144;43.030;25.108;2023-05-03T03:21:03;99445.47;;;16.45;49.50
21960;BME280;11144;43.030;25.108;2023-05-03T03:22:37;99458.81;;;16.45;49.39
21960;BME280;11144;43.030;25.108;2023-05-03T03:24:11;99449.09;;;16.44;49.36
21960;BME280;11144;43.030;25.108;2023-05-03T03:25:44;99446.50;;;16.42;49.22
21960;BME280;11144;43.030;25.108;2023-05-03T03:27:19;99452.69;;;16.43;49.32
21960;BME280;11144;43.030;25.108;2023-05-03T03:28:54;99442.19;;;16.40;49.45
21960;BME280;11144;43.030;25.108;2023-05-03T03:30:29;99451.09;;;16.39;49.42
21960;BME280;11144;43.030;25.108;2023-05-03T03:32:11;99453.03;;;16.37;49.45
21960;BME280;11144;43.030;25.108;2023-05-03T03:33:45;99457.66;;;16.33;49.38
21960;BME280;11144;43.030;25.108;2023-05-03T03:35:22;99448.19;;;16.28;49.69
21960;BME280;11144;43.030;25.108;2023-05-03T03:36:55;99455.28;;;16.29;49.63
21960;BME280;11144;43.030;25.108;2023-05-03T03:38:31;99448.19;;;16.28;49.58
21960;BME280;11144;43.030;25.108;2023-05-03T03:40:09;99453.69;;;16.25;49.86
21960;BME280;11144;43.030;25.108;2023-05-03T03:41:42;99451.81;;;16.27;49.77
21960;BME280;11144;43.030;25.108;2023-05-03T03:43:15;99459.03;;;16.25;49.76
21960;BME280;11144;43.030;25.108;2023-05-03T03:44:48;99455.59;;;16.23;49.55
21960;BME280;11144;43.030;25.108;2023-05-03T03:46:23;99453.81;;;16.23;49.41
21960;BME280;11144;43.030;25.108;2023-05-03T03:47:59;99456.38;;;16.25;49.69
21960;BME280;11144;43.030;25.108;2023-05-03T03:49:33;99457.16;;;16.27;49.56
21960;BME280;11144;43.030;25.108;2023-05-03T03:51:07;99461.19;;;16.34;49.35
21960;BME280;11144;43.030;25.108;2023-05-03T03:52:46;99462.53;;;16.42;49.33
21960;BME280;11144;43.030;25.108;2023-05-03T03:54:19;99463.03;;;16.49;49.05
21960;BME280;11144;43.030;25.108;2023-05-03T03:55:54;99466.09;;;16.57;49.04
21960;BME280;11144;43.030;25.108;2023-05-03T03:57:28;99466.81;;;16.60;48.88
21960;BME280;11144;43.030;25.108;2023-05-03T03:59:02;99465.59;;;16.66;48.94
21960;BME280;11144;43.030;25.108;2023-05-03T04:00:36;99465.38;;;16.69;48.70
21960;BME280;11144;43.030;25.108;2023-05-03T04:02:17;99454.69;;;16.69;48.71
21960;BME280;11144;43.030;25.108;2023-05-03T04:03:51;99456.06;;;16.76;48.75
21960;BME280;11144;43.030;25.108;2023-05-03T04:05:24;99451.34;;;16.81;48.55
21960;BME280;11144;43.030;25.108;2023-05-03T04:06:58;99441.22;;;16.86;48.46
21960;BME280;11144;43.030;25.108;2023-05-03T04:08:32;99450.94;;;16.87;48.55
21960;BME280;11144;43.030;25.108;2023-05-03T04:10:07;99453.44;;;16.90;48.64
21960;BME280;11144;43.030;25.108;2023-05-03T04:11:42;99454.81;;;16.97;48.58
21960;BME280;11144;43.030;25.108;2023-05-03T04:13:17;99459.97;;;17.00;48.55
21960;BME280;11144;43.030;25.108;2023-05-03T04:14:53;99457.88;;;17.05;48.34
21960;BME280;11144;43.030;25.108;2023-05-03T04:16:28;99455.81;;;17.10;48.23
21960;BME280;11144;43.030;25.108;2023-05-03T04:18:05;99462.09;;;17.09;48.12
21960;BME280;11144;43.030;25.108;2023-05-03T04:19:42;99455.41;;;17.16;48.03
21960;BME280;11144;43.030;25.108;2023-05-03T04:21:16;99460.41;;;17.22;48.41
21960;BME280;11144;43.030;25.108;2023-05-03T04:22:51;99456.97;;;17.20;48.17
21960;BME280;11144;43.030;25.108;2023-05-03T04:24:27;99470.53;;;17.31;48.13
21960;BME280;11144;43.030;25.108;2023-05-03T04:26:02;99471.13;;;17.36;48.23
21960;BME280;11144;43.030;25.108;2023-05-03T04:27:37;99475.50;;;17.37;48.48
21960;BME280;11144;43.030;25.108;2023-05-03T04:29:10;99479.91;;;17.38;48.12
21960;BME280;11144;43.030;25.108;2023-05-03T04:30:46;99470.53;;;17.31;48.17
21960;BME280;11144;43.030;25.108;2023-05-03T04:32:25;99473.38;;;17.28;48.09
21960;BME280;11144;43.030;25.108;2023-05-03T04:34:02;99484.06;;;17.28;48.07
21960;BME280;11144;43.030;25.108;2023-05-03T04:35:35;99476.06;;;17.28;47.87
21960;BME280;11144;43.030;25.108;2023-05-03T04:37:14;99479.34;;;17.33;48.38
21960;BME280;11144;43.030;25.108;2023-05-03T04:38:47;99492.44;;;17.38;48.36
21960;BME280;11144;43.030;25.108;2023-05-03T04:40:21;99491.56;;;17.37;48.09
21960;BME280;11144;43.030;25.108;2023-05-03T04:42:03;99494.06;;;17.40;48.44
21960;BME280;11144;43.030;25.108;2023-05-03T04:43:38;99493.13;;;17.41;48.68
21960;BME280;11144;43.030;25.108;2023-05-03T04:45:11;99503.47;;;17.47;48.73
21960;BME280;11144;43.030;25.108;2023-05-03T04:46:45;99499.66;;;17.51;48.71
21960;BME280;11144;43.030;25.108;2023-05-03T04:48:21;99502.88;;;17.56;49.19
21960;BME280;11144;43.030;25.108;2023-05-03T04:49:57;99511.47;;;17.61;49.19
21960;BME280;11144;43.030;25.108;2023-05-03T04:51:31;99512.81;;;17.68;49.43
21960;BME280;11144;43.030;25.108;2023-05-03T04:53:04;99518.97;;;17.70;49.20
21960;BME280;11144;43.030;25.108;2023-05-03T04:54:41;99512.47;;;17.74;49.62
21960;BME280;11144;43.030;25.108;2023-05-03T04:56:14;99519.53;;;17.75;48.97
21960;BME280;11144;43.030;25.108;2023-05-03T04:57:48;99514.16;;;17.75;48.22
21960;BME280;11144;43.030;25.108;2023-05-03T04:59:21;99516.09;;;17.73;48.27
21960;BME280;11144;43.030;25.108;2023-05-03T05:00:55;99523.16;;;17.74;48.08
21960;BME280;11144;43.030;25.108;2023-05-03T05:02:32;99536.16;;;17.66;47.75
21960;BME280;11144;43.030;25.108;2023-05-03T05:04:06;99538.22;;;17.61;47.62
21960;BME280;11144;43.030;25.108;2023-05-03T05:05:48;99532.88;;;17.61;47.70
21960;BME280;11144;43.030;25.108;2023-05-03T05:07:22;99537.19;;;17.64;47.77
21960;BME280;11144;43.030;25.108;2023-05-03T05:08:56;99530.19;;;17.61;48.00
21960;BME280;11144;43.030;25.108;2023-05-03T05:10:29;99540.72;;;17.64;47.62
21960;BME280;11144;43.030;25.108;2023-05-03T05:12:02;99545.09;;;17.65;47.72
21960;BME280;11144;43.030;25.108;2023-05-03T05:13:43;99552.19;;;17.66;47.82
21960;BME280;11144;43.030;25.108;2023-05-03T05:15:18;99559.44;;;17.64;47.88
21960;BME280;11144;43.030;25.108;2023-05-03T05:16:51;99559.84;;;17.58;49.77
21960;BME280;11144;43.030;25.108;2023-05-03T05:18:25;99559.53;;;17.33;56.64
21960;BME280;11144;43.030;25.108;2023-05-03T05:19:59;99554.72;;;17.24;60.38
21960;BME280;11144;43.030;25.108;2023-05-03T05:21:35;99550.28;;;17.09;64.51
21960;BME280;11144;43.030;25.108;2023-05-03T05:23:08;99553.41;;;17.02;66.67
21960;BME280;11144;43.030;25.108;2023-05-03T05:24:44;99553.09;;;16.92;69.69
21960;BME280;11144;43.030;25.108;2023-05-03T05:26:19;99557.63;;;16.90;70.81
21960;BME280;11144;43.030;25.108;2023-05-03T05:27:53;99564.13;;;16.86;72.88
21960;BME280;11144;43.030;25.108;2023-05-03T05:29:27;99558.59;;;16.89;69.41
21960;BME280;11144;43.030;25.108;2023-05-03T05:31:01;99564.53;;;16.94;69.65
21960;BME280;11144;43.030;25.108;2023-05-03T05:32:35;99560.13;;;16.93;70.77
21960;BME280;11144;43.030;25.108;2023-05-03T05:34:10;99572.03;;;17.03;70.45
21960;BME280;11144;43.030;25.108;2023-05-03T05:35:46;99571.47;;;17.12;70.62
21960;BME280;11144;43.030;25.108;2023-05-03T05:37:25;99573.63;;;17.21;71.57
21960;BME280;11144;43.030;25.108;2023-05-03T05:39:02;99573.41;;;17.10;72.57
21960;BME280;11144;43.030;25.108;2023-05-03T05:40:49;99574.63;;;17.05;81.27
21960;BME280;11144;43.030;25.108;2023-05-03T05:42:23;99576.50;;;16.87;77.94
21960;BME280;11144;43.030;25.108;2023-05-03T05:43:57;99586.53;;;16.68;82.55
21960;BME280;11144;43.030;25.108;2023-05-03T05:45:32;99591.34;;;16.46;88.06
21960;BME280;11144;43.030;25.108;2023-05-03T05:47:07;99589.63;;;16.45;89.00
21960;BME280;11144;43.030;25.108;2023-05-03T05:48:42;99580.97;;;16.40;92.91
21960;BME280;11144;43.030;25.108;2023-05-03T05:50:15;99605.41;;;16.32;96.43
21960;BME280;11144;43.030;25.108;2023-05-03T05:51:56;99606.44;;;16.30;96.65
21960;BME280;11144;43.030;25.108;2023-05-03T05:53:31;99615.22;;;16.32;97.20
21960;BME280;11144;43.030;25.108;2023-05-03T05:55:07;99607.84;;;16.37;96.02
21960;BME280;11144;43.030;25.108;2023-05-03T05:56:40;99613.72;;;16.43;94.38
21960;BME280;11144;43.030;25.108;2023-05-03T05:58:14;99612.38;;;16.52;96.95
21960;BME280;11144;43.030;25.108;2023-05-03T05:59:52;99615.63;;;16.57;96.85
21960;BME280;11144;43.030;25.108;2023-05-03T06:01:26;99612.72;;;16.61;97.20
21960;BME280;11144;43.030;25.108;2023-05-03T06:02:59;99616.84;;;16.67;97.59
21960;BME280;11144;43.030;25.108;2023-05-03T06:04:32;99619.09;;;16.74;98.34
21960;BME280;11144;43.030;25.108;2023-05-03T06:06:06;99631.22;;;16.80;97.61
21960;BME280;11144;43.030;25.108;2023-05-03T06:07:40;99627.34;;;16.85;96.59
21960;BME280;11144;43.030;25.108;2023-05-03T06:09:15;99627.69;;;16.95;96.63
21960;BME280;11144;43.030;25.108;2023-05-03T06:10:55;99618.03;;;17.08;92.68
21960;BME280;11144;43.030;25.108;2023-05-03T06:12:30;99621.50;;;17.10;92.02
21960;BME280;11144;43.030;25.108;2023-05-03T06:14:04;99616.50;;;17.04;91.97
21960;BME280;11144;43.030;25.108;2023-05-03T06:15:43;99628.56;;;17.11;93.23
21960;BME280;11144;43.030;25.108;2023-05-03T06:17:16;99622.66;;;17.20;94.84
21960;BME280;11144;43.030;25.108;2023-05-03T06:18:50;99623.47;;;17.22;95.53
21960;BME280;11144;43.030;25.108;2023-05-03T06:20:23;99616.81;;;17.29;95.12
21960;BME280;11144;43.030;25.108;2023-05-03T06:21:58;99621.53;;;17.40;96.44
21960;BME280;11144;43.030;25.108;2023-05-03T06:23:32;99632.94;;;17.43;96.38
21960;BME280;11144;43.030;25.108;2023-05-03T06:25:09;99616.69;;;17.46;97.75
21960;BME280;11144;43.030;25.108;2023-05-03T06:26:49;99616.19;;;17.55;96.00
21960;BME280;11144;43.030;25.108;2023-05-03T06:28:24;99621.91;;;17.63;96.55
21960;BME280;11144;43.030;25.108;2023-05-03T06:29:59;99630.16;;;17.74;96.28
21960;BME280;11144;43.030;25.108;2023-05-03T06:31:33;99632.75;;;17.76;93.81
21960;BME280;11144;43.030;25.108;2023-05-03T06:33:11;99634.38;;;17.78;94.80
21960;BME280;11144;43.030;25.108;2023-05-03T06:34:45;99647.41;;;17.84;92.76
21960;BME280;11144;43.030;25.108;2023-05-03T06:36:19;99655.13;;;17.89;90.72
21960;BME280;11144;43.030;25.108;2023-05-03T06:37:53;99658.31;;;17.95;90.13
21960;BME280;11144;43.030;25.108;2023-05-03T06:39:26;99650.47;;;17.92;92.09
21960;BME280;11144;43.030;25.108;2023-05-03T06:41:01;99652.94;;;17.81;94.54
21960;BME280;11144;43.030;25.108;2023-05-03T06:42:34;99657.09;;;17.71;96.34
21960;BME280;11144;43.030;25.108;2023-05-03T06:44:23;99647.63;;;17.66;97.00
21960;BME280;11144;43.030;25.108;2023-05-03T06:45:56;99655.72;;;17.64;95.58
21960;BME280;11144;43.030;25.108;2023-05-03T06:47:29;99664.72;;;17.63;95.01
21960;BME280;11144;43.030;25.108;2023-05-03T06:49:02;99662.03;;;17.63;92.43
21960;BME280;11144;43.030;25.108;2023-05-03T06:50:36;99666.44;;;17.64;91.72
21960;BME280;11144;43.030;25.108;2023-05-03T06:52:09;99674.47;;;17.64;92.67
21960;BME280;11144;43.030;25.108;2023-05-03T06:53:43;99675.78;;;17.57;96.39
21960;BME280;11144;43.030;25.108;2023-05-03T06:55:17;99679.75;;;17.50;98.76
21960;BME280;11144;43.030;25.108;2023-05-03T06:56:51;99686.16;;;17.32;100.00
21960;BME280;11144;43.030;25.108;2023-05-03T06:58:25;99675.97;;;17.23;100.00
21960;BME280;11144;43.030;25.108;2023-05-03T06:59:58;99666.16;;;17.08;100.00
21960;BME280;11144;43.030;25.108;2023-05-03T07:01:32;99669.09;;;16.88;100.00
21960;BME280;11144;43.030;25.108;2023-05-03T07:03:05;99678.28;;;16.67;100.00
21960;BME280;11144;43.030;25.108;2023-05-03T07:04:39;99673.34;;;16.44;100.00
21960;BME280;11144;43.030;25.108;2023-05-03T07:06:12;99686.66;;;16.27;100.00
21960;BME280;11144;43.030;25.108;2023-05-03T07:07:46;99681.63;;;16.05;100.00
21960;BME280;11144;43.030;25.108;2023-05-03T07:09:19;99695.09;;;15.85;100.00
21960;BME280;11144;43.030;25.108;2023-05-03T07:11:12;99693.28;;;15.52;100.00
21960;BME280;11144;43.030;25.108;2023-05-03T07:12:47;99686.16;;;15.34;100.00
21960;BME280;11144;43.030;25.108;2023-05-03T07:14:20;99686.78;;;15.22;100.00
21960;BME280;11144;43.030;25.108;2023-05-03T07:15:53;99681.94;;;15.11;100.00
21960;BME280;11144;43.030;25.108;2023-05-03T07:17:27;99664.78;;;15.00;100.00
21960;BME280;11144;43.030;25.108;2023-05-03T07:19:00;99655.56;;;14.88;100.00
21960;BME280;11144;43.030;25.108;2023-05-03T07:20:34;99644.63;;;14.76;100.00
21960;BME280;11144;43.030;25.108;2023-05-03T07:22:07;99646.06;;;14.64;100.00
21960;BME280;11144;43.030;25.108;2023-05-03T07:23:41;99644.03;;;14.51;100.00
21960;BME280;11144;43.030;25.108;2023-05-03T07:25:14;99639.31;;;14.39;100.00
21960;BME280;11144;43.030;25.108;2023-05-03T07:26:48;99636.78;;;14.36;100.00
21960;BME280;11144;43.030;25.108;2023-05-03T07:28:23;99635.13;;;14.33;100.00
21960;BME280;11144;43.030;25.108;2023-05-03T07:29:56;99624.50;;;14.33;100.00
21960;BME280;11144;43.030;25.108;2023-05-03T07:31:30;99614.72;;;14.34;100.00
21960;BME280;11144;43.030;25.108;2023-05-03T07:33:03;99612.84;;;14.36;100.00
21960;BME280;11144;43.030;25.108;2023-05-03T07:34:36;99614.56;;;14.37;100.00
21960;BME280;11144;43.030;25.108;2023-05-03T07:36:10;99605.78;;;14.35;100.00
21960;BME280;11144;43.030;25.108;2023-05-03T07:37:43;99601.03;;;14.41;100.00
21960;BME280;11144;43.030;25.108;2023-05-03T07:39:17;99600.69;;;14.49;100.00
21960;BME280;11144;43.030;25.108;2023-05-03T07:40:50;99596.56;;;14.60;100.00
21960;BME280;11144;43.030;25.108;2023-05-03T07:42:24;99598.00;;;14.67;100.00
21960;BME280;11144;43.030;25.108;2023-05-03T07:43:59;99595.00;;;14.75;100.00
21960;BME280;11144;43.030;25.108;2023-05-03T07:45:32;99601.81;;;14.80;100.00
21960;BME280;11144;43.030;25.108;2023-05-03T07:47:05;99599.72;;;14.87;100.00
21960;BME280;11144;43.030;25.108;2023-05-03T07:48:39;99599.09;;;14.99;100.00
21960;BME280;11144;43.030;25.108;2023-05-03T07:50:12;99597.66;;;15.10;100.00
21960;BME280;11144;43.030;25.108;2023-05-03T07:51:45;99592.72;;;15.20;100.00
21960;BME280;11144;43.030;25.108;2023-05-03T07:53:18;99600.78;;;15.37;100.00
21960;BME280;11144;43.030;25.108;2023-05-03T07:54:52;99601.84;;;15.50;100.00
21960;BME280;11144;43.030;25.108;2023-05-03T07:56:26;99604.53;;;15.67;100.00
21960;BME280;11144;43.030;25.108;2023-05-03T07:58:00;99605.59;;;15.80;100.00
21960;BME280;11144;43.030;25.108;2023-05-03T07:59:35;99597.91;;;15.91;100.00
21960;BME280;11144;43.030;25.108;2023-05-03T08:01:09;99601.13;;;15.97;100.00
21960;BME280;11144;43.030;25.108;2023-05-03T08:02:42;99600.38;;;16.11;100.00
21960;BME280;11144;43.030;25.108;2023-05-03T08:04:16;99601.44;;;16.24;100.00
21960;BME280;11144;43.030;25.108;2023-05-03T08:05:50;99596.59;;;16.30;100.00
21960;BME280;11144;43.030;25.108;2023-05-03T08:07:23;99598.59;;;16.44;100.00
21960;BME280;11144;43.030;25.108;2023-05-03T08:08:58;99602.53;;;16.52;100.00
21960;BME280;11144;43.030;25.108;2023-05-03T08:10:32;99601.00;;;16.64;100.00
21960;BME280;11144;43.030;25.108;2023-05-03T08:12:08;99605.22;;;16.68;100.00
21960;BME280;11144;43.030;25.108;2023-05-03T08:13:42;99601.78;;;16.66;100.00
21960;BME280;11144;43.030;25.108;2023-05-03T08:15:16;99601.69;;;16.52;100.00